createdAt,value
2022-12-10T00:01:17.158Z,24.13
2022-12-10T00:03:45.239Z,29.63
2022-12-10T00:06:17.274Z,31.95
2022-12-10T00:08:44.344Z,30.55
2022-12-10T00:11:13.700Z,28.98
2022-12-10T00:13:40.948Z,30.88
2022-12-10T00:16:09.698Z,29.67
2022-12-10T00:18:36.984Z,27.67
2022-12-10T00:21:08.783Z,34.85
2022-12-10T00:23:35.788Z,30.92
2022-12-10T00:26:24.679Z,29.25
2022-12-10T00:28:52.724Z,27.45
2022-12-10T00:31:28.082Z,33.20
2022-12-10T00:33:59.239Z,26.55
2022-12-10T00:36:31.326Z,31.75
2022-12-10T00:38:57.840Z,27.70
2022-12-10T00:41:24.455Z,27.58
2022-12-10T00:43:51.690Z,33.00
2022-12-10T00:46:19.567Z,30.17
2022-12-10T00:48:46.543Z,27.73
2022-12-10T00:51:17.547Z,30.17
2022-12-10T00:53:45.375Z,30.00
2022-12-10T00:56:13.702Z,32.35
2022-12-10T00:58:40.771Z,29.80
2022-12-10T01:01:28.938Z,34.35
2022-12-10T01:03:58.554Z,33.22
2022-12-10T01:06:31.185Z,31.60
2022-12-10T01:09:00.882Z,31.17
2022-12-10T01:11:32.649Z,29.20
2022-12-10T01:13:59.461Z,27.02
2022-12-10T01:16:27.143Z,32.83
2022-12-10T01:18:55.641Z,33.72
2022-12-10T01:21:23.067Z,31.65
2022-12-10T01:23:50.990Z,32.03
2022-12-10T01:26:20.553Z,33.47
2022-12-10T01:28:47.903Z,29.90
2022-12-10T01:31:20.168Z,38.33
2022-12-10T01:33:47.553Z,27.98
2022-12-10T01:36:17.122Z,28.85
2022-12-10T01:38:44.119Z,31.85
2022-12-10T01:41:21.464Z,29.90
2022-12-10T01:43:55.392Z,29.15
2022-12-10T01:46:24.104Z,31.40
2022-12-10T01:48:51.256Z,34.45
2022-12-10T01:51:18.319Z,32.30
2022-12-10T01:53:46.268Z,32.28
2022-12-10T01:56:13.653Z,31.17
2022-12-10T01:58:40.336Z,30.83
2022-12-10T02:01:22.051Z,29.30
2022-12-10T02:04:21.383Z,29.17
2022-12-10T02:07:14.373Z,34.53
2022-12-10T02:10:09.275Z,33.15
2022-12-10T02:12:43.060Z,31.75
2022-12-10T02:15:16.575Z,32.72
2022-12-10T02:18:08.684Z,30.42
2022-12-10T02:20:46.107Z,26.83
2022-12-10T02:23:22.891Z,28.38
2022-12-10T02:26:00.255Z,32.65
2022-12-10T02:28:50.855Z,30.92
2022-12-10T02:31:22.535Z,29.77
2022-12-10T02:33:52.394Z,31.08
2022-12-10T02:36:22.622Z,28.58
2022-12-10T02:38:51.749Z,32.53
2022-12-10T02:41:27.228Z,32.35
2022-12-10T02:43:56.849Z,29.05
2022-12-10T02:46:25.433Z,27.77
2022-12-10T02:48:53.277Z,33.00
2022-12-10T02:51:19.711Z,32.75
2022-12-10T02:53:47.011Z,28.65
2022-12-10T02:56:51.842Z,26.50
2022-12-10T02:59:58.324Z,35.53
2022-12-10T03:02:38.317Z,29.33
2022-12-10T03:05:16.098Z,33.50
2022-12-10T03:07:51.258Z,29.30
2022-12-10T03:10:39.509Z,29.42
2022-12-10T03:13:10.655Z,37.63
2022-12-10T03:15:41.724Z,33.55
2022-12-10T03:18:10.828Z,31.75
2022-12-10T03:20:45.514Z,35.80
2022-12-10T03:23:16.231Z,33.72
2022-12-10T03:25:43.165Z,33.53
2022-12-10T03:28:10.381Z,30.65
2022-12-10T03:30:38.841Z,26.45
2022-12-10T03:33:06.220Z,33.65
2022-12-10T03:35:33.501Z,26.50
2022-12-10T03:38:00.173Z,28.73
2022-12-10T03:40:27.298Z,32.22
2022-12-10T03:42:53.723Z,30.38
2022-12-10T03:45:20.494Z,34.15
2022-12-10T03:47:47.195Z,32.60
2022-12-10T03:50:13.713Z,30.73
2022-12-10T03:52:40.174Z,30.42
2022-12-10T03:55:07.750Z,34.38
2022-12-10T03:57:34.981Z,31.75
2022-12-10T04:00:01.783Z,32.90
2022-12-10T04:02:28.321Z,32.20
2022-12-10T04:04:54.765Z,32.00
2022-12-10T04:07:21.317Z,32.38
2022-12-10T04:09:47.875Z,31.60
2022-12-10T04:12:14.306Z,30.30
2022-12-10T04:14:59.350Z,27.77
2022-12-10T04:17:25.797Z,37.38
2022-12-10T04:19:52.205Z,30.95
2022-12-10T04:22:37.284Z,32.35
2022-12-10T04:25:22.554Z,34.78
2022-12-10T04:27:49.206Z,33.13
2022-12-10T04:30:16.063Z,33.95
2022-12-10T04:32:42.494Z,36.83
2022-12-10T04:35:09.662Z,32.58
2022-12-10T04:37:36.626Z,36.75
2022-12-10T04:40:04.046Z,34.92
2022-12-10T04:42:30.577Z,34.05
2022-12-10T04:44:57.036Z,36.00
2022-12-10T04:47:23.895Z,38.60
2022-12-10T04:49:50.371Z,33.38
2022-12-10T04:52:17.405Z,34.90
2022-12-10T04:54:44.996Z,37.75
2022-12-10T04:57:12.099Z,36.03
2022-12-10T04:59:38.772Z,41.22
2022-12-10T05:02:06.608Z,34.60
2022-12-10T05:04:33.063Z,38.33
2022-12-10T05:06:59.707Z,39.05
2022-12-10T05:09:26.271Z,37.00
2022-12-10T05:11:52.695Z,39.10
2022-12-10T05:14:19.150Z,35.40
2022-12-10T05:16:45.619Z,38.17
2022-12-10T05:19:12.651Z,39.53
2022-12-10T05:22:14.408Z,33.92
2022-12-10T05:24:41.000Z,35.38
2022-12-10T05:27:07.484Z,40.42
2022-12-10T05:29:34.010Z,40.13
2022-12-10T05:32:00.759Z,42.00
2022-12-10T05:34:27.228Z,40.50
2022-12-10T05:36:53.642Z,42.50
2022-12-10T05:39:20.039Z,40.40
2022-12-10T05:41:46.637Z,40.85
2022-12-10T05:44:13.245Z,36.85
2022-12-10T05:46:39.795Z,44.75
2022-12-10T05:49:07.159Z,42.95
2022-12-10T05:51:36.405Z,40.67
2022-12-10T05:54:04.541Z,40.83
2022-12-10T05:56:31.701Z,41.20
2022-12-10T05:59:01.176Z,40.63
2022-12-10T06:01:33.915Z,48.58
2022-12-10T06:04:01.572Z,45.15
2022-12-10T06:06:30.868Z,44.95
2022-12-10T06:08:58.088Z,45.15
2022-12-10T06:11:25.084Z,42.65
2022-12-10T06:13:56.023Z,45.05
2022-12-10T06:16:23.680Z,50.85
2022-12-10T06:18:50.255Z,45.65
2022-12-10T06:21:18.926Z,45.00
2022-12-10T06:23:46.070Z,46.00
2022-12-10T06:26:19.075Z,45.65
2022-12-10T06:28:46.682Z,46.28
2022-12-10T06:31:13.687Z,41.50
2022-12-10T06:33:40.157Z,44.83
2022-12-10T06:36:08.595Z,44.90
2022-12-10T06:38:36.463Z,46.58
2022-12-10T06:41:08.319Z,44.33
2022-12-10T06:43:35.292Z,48.63
2022-12-10T06:46:09.501Z,40.08
2022-12-10T06:48:36.643Z,45.35
2022-12-10T06:51:04.844Z,39.63
2022-12-10T06:53:32.794Z,43.30
2022-12-10T06:56:00.754Z,43.88
2022-12-10T06:58:29.548Z,44.88
2022-12-10T07:01:04.188Z,51.75
2022-12-10T07:03:31.866Z,45.78
2022-12-10T07:06:00.143Z,43.85
2022-12-10T07:08:26.632Z,42.60
2022-12-10T07:10:53.686Z,43.35
2022-12-10T07:13:20.390Z,47.53
2022-12-10T07:15:46.834Z,50.33
2022-12-10T07:18:13.352Z,49.45
2022-12-10T07:20:39.770Z,48.35
2022-12-10T07:23:06.224Z,46.63
2022-12-10T07:25:34.101Z,39.65
2022-12-10T07:28:00.596Z,46.53
2022-12-10T07:30:27.017Z,43.47
2022-12-10T07:32:53.411Z,40.13
2022-12-10T07:35:19.852Z,44.08
2022-12-10T07:37:46.248Z,49.58
2022-12-10T07:40:12.780Z,54.03
2022-12-10T07:42:39.208Z,45.83
2022-12-10T07:45:06.148Z,58.85
2022-12-10T07:47:35.328Z,45.15
2022-12-10T07:50:01.739Z,47.03
2022-12-10T07:52:28.135Z,48.35
2022-12-10T07:54:54.548Z,46.28
2022-12-10T07:57:20.956Z,51.13
2022-12-10T07:59:47.938Z,48.03
2022-12-10T08:02:14.335Z,47.25
2022-12-10T08:04:40.910Z,46.75
2022-12-10T08:07:08.490Z,49.30
2022-12-10T08:09:35.893Z,47.05
2022-12-10T08:12:02.306Z,45.78
2022-12-10T08:14:28.893Z,44.08
2022-12-10T08:16:55.273Z,48.95
2022-12-10T08:19:25.801Z,44.75
2022-12-10T08:21:54.874Z,48.40
2022-12-10T08:24:21.278Z,49.53
2022-12-10T08:26:47.664Z,43.95
2022-12-10T08:29:14.087Z,47.00
2022-12-10T08:31:40.569Z,39.30
2022-12-10T08:34:13.934Z,50.05
2022-12-10T08:36:40.414Z,45.85
2022-12-10T08:39:06.831Z,49.08
2022-12-10T08:41:33.336Z,40.90
2022-12-10T08:43:59.780Z,45.63
2022-12-10T08:46:27.488Z,42.50
2022-12-10T08:48:53.910Z,36.95
2022-12-10T08:51:21.020Z,47.45
2022-12-10T08:53:48.255Z,42.20
2022-12-10T08:56:16.200Z,38.42
2022-12-10T08:58:43.316Z,47.03
2022-12-10T09:01:11.868Z,39.25
2022-12-10T09:03:38.815Z,39.58
2022-12-10T09:06:12.258Z,38.83
2022-12-10T09:08:39.193Z,35.20
2022-12-10T09:11:10.666Z,33.50
2022-12-10T09:13:37.136Z,35.78
2022-12-10T09:16:04.407Z,36.55
2022-12-10T09:18:30.994Z,34.35
2022-12-10T09:20:57.958Z,39.80
2022-12-10T09:23:25.015Z,36.17
2022-12-10T09:25:51.540Z,42.92
2022-12-10T09:28:18.031Z,39.78
2022-12-10T09:30:44.463Z,41.10
2022-12-10T09:33:11.278Z,42.40
2022-12-10T09:35:41.502Z,33.85
2022-12-10T09:38:07.957Z,37.40
2022-12-10T09:40:44.488Z,39.60
2022-12-10T09:43:37.969Z,40.42
2022-12-10T09:46:24.740Z,37.15
2022-12-10T09:49:12.505Z,35.33
2022-12-10T09:51:39.157Z,42.08
2022-12-10T09:54:19.486Z,36.90
2022-12-10T09:56:46.473Z,37.80
2022-12-10T09:59:38.055Z,30.70
2022-12-10T10:02:04.542Z,33.35
2022-12-10T10:04:31.291Z,30.90
2022-12-10T10:06:58.362Z,37.20
2022-12-10T10:09:25.245Z,39.83
2022-12-10T10:11:51.913Z,43.75
2022-12-10T10:14:26.957Z,35.65
2022-12-10T10:17:00.521Z,34.58
2022-12-10T10:19:30.961Z,41.38
2022-12-10T10:21:58.752Z,36.90
2022-12-10T10:24:40.927Z,44.78
2022-12-10T10:27:16.553Z,38.50
2022-12-10T10:29:46.311Z,38.10
2022-12-10T10:32:23.419Z,38.67
2022-12-10T10:34:55.571Z,41.53
2022-12-10T10:37:31.974Z,38.75
2022-12-10T10:39:59.397Z,43.13
2022-12-10T10:42:26.090Z,42.72
2022-12-10T10:44:52.653Z,45.88
2022-12-10T10:47:34.375Z,41.83
2022-12-10T10:50:03.538Z,38.85
2022-12-10T10:52:32.029Z,43.28
2022-12-10T10:54:58.644Z,40.30
2022-12-10T10:57:30.336Z,44.60
2022-12-10T11:00:09.188Z,47.40
2022-12-10T11:02:41.637Z,41.78
2022-12-10T11:07:39.051Z,38.10
2022-12-10T11:10:17.554Z,38.60
2022-12-10T11:12:46.402Z,34.55
2022-12-10T11:15:25.497Z,37.10
2022-12-10T11:17:55.139Z,33.63
2022-12-10T11:20:36.172Z,35.83
2022-12-10T11:23:13.853Z,41.85
2022-12-10T11:25:43.280Z,39.15
2022-12-10T11:28:16.097Z,34.08
2022-12-10T11:31:14.684Z,35.78
2022-12-10T11:34:19.591Z,31.33
2022-12-10T11:37:11.481Z,35.35
2022-12-10T11:39:37.904Z,34.40
2022-12-10T11:42:20.416Z,34.85
2022-12-10T11:45:08.723Z,37.03
2022-12-10T11:48:09.721Z,37.85
2022-12-10T11:50:43.891Z,36.87
2022-12-10T11:53:28.557Z,38.67
2022-12-10T11:56:18.079Z,40.75
2022-12-10T11:59:03.052Z,40.20
2022-12-10T12:01:45.003Z,33.72
2022-12-10T12:04:17.521Z,34.47
2022-12-10T12:07:09.008Z,36.42
2022-12-10T12:10:06.636Z,43.35
2022-12-10T12:12:56.052Z,32.25
2022-12-10T12:15:30.952Z,38.50
2022-12-10T12:18:04.226Z,43.97
2022-12-10T12:20:38.345Z,33.40
2022-12-10T12:23:30.595Z,34.30
2022-12-10T12:26:04.886Z,38.83
2022-12-10T12:28:32.611Z,34.60
2022-12-10T12:31:26.701Z,39.50
2022-12-10T12:34:02.623Z,35.72
2022-12-10T12:36:35.210Z,34.70
2022-12-10T12:39:29.985Z,28.90
2022-12-10T12:42:18.270Z,32.83
2022-12-10T12:44:44.816Z,32.85
2022-12-10T12:47:30.037Z,27.40
2022-12-10T12:49:59.701Z,34.85
2022-12-10T12:52:41.310Z,38.78
2022-12-10T12:57:52.521Z,33.92
2022-12-10T13:00:22.809Z,33.92
2022-12-10T13:03:07.264Z,35.83
2022-12-10T13:05:37.829Z,34.75
2022-12-10T13:08:19.903Z,36.42
2022-12-10T13:10:52.499Z,39.60
2022-12-10T13:13:27.656Z,36.75
2022-12-10T13:15:55.060Z,36.63
2022-12-10T13:18:37.315Z,35.88
2022-12-10T13:21:30.515Z,36.22
2022-12-10T13:24:12.241Z,33.13
2022-12-10T13:27:02.087Z,38.72
2022-12-10T13:29:28.558Z,39.15
2022-12-10T13:32:14.155Z,37.50
2022-12-10T13:34:40.626Z,39.35
2022-12-10T13:37:18.426Z,31.75
2022-12-10T13:39:53.013Z,35.35
2022-12-10T13:42:38.077Z,37.03
2022-12-10T13:45:23.871Z,32.40
2022-12-10T13:47:56.219Z,34.28
2022-12-10T13:50:37.752Z,31.08
2022-12-10T13:53:16.460Z,33.53
2022-12-10T13:56:10.414Z,40.92
2022-12-10T13:58:52.403Z,33.05
2022-12-10T14:01:31.433Z,36.42
2022-12-10T14:04:00.599Z,35.92
2022-12-10T14:06:27.957Z,33.75
2022-12-10T14:08:58.049Z,32.78
2022-12-10T14:11:35.464Z,35.50
2022-12-10T14:14:06.648Z,40.35
2022-12-10T14:16:36.839Z,36.42
2022-12-10T14:19:12.623Z,38.88
2022-12-10T14:21:42.449Z,40.85
2022-12-10T14:24:28.271Z,44.63
2022-12-10T14:27:01.717Z,38.53
2022-12-10T14:29:29.564Z,41.85
2022-12-10T14:31:56.990Z,46.75
2022-12-10T14:34:27.812Z,43.50
2022-12-10T14:37:02.397Z,45.40
2022-12-10T14:39:32.404Z,47.78
2022-12-10T14:42:01.704Z,41.60
2022-12-10T14:44:29.023Z,45.80
2022-12-10T14:47:07.726Z,39.55
2022-12-10T14:49:43.428Z,45.08
2022-12-10T14:52:18.227Z,42.75
2022-12-10T14:54:46.041Z,50.50
2022-12-10T14:57:18.865Z,46.53
2022-12-10T14:59:51.578Z,42.65
2022-12-10T15:02:21.352Z,42.40
2022-12-10T15:04:50.037Z,38.95
2022-12-10T15:07:21.637Z,35.45
2022-12-10T15:09:49.800Z,37.90
2022-12-10T15:12:37.136Z,40.78
2022-12-10T15:15:13.200Z,43.22
2022-12-10T15:17:53.406Z,43.55
2022-12-10T15:20:22.429Z,36.42
2022-12-10T15:22:48.923Z,39.70
2022-12-10T15:25:28.472Z,37.80
2022-12-10T15:28:02.005Z,40.53
2022-12-10T15:30:39.918Z,44.22
2022-12-10T15:33:28.199Z,41.47
2022-12-10T15:35:57.688Z,40.35
2022-12-10T15:38:24.781Z,37.83
2022-12-10T15:40:51.315Z,42.53
2022-12-10T15:43:23.840Z,32.65
2022-12-10T15:45:51.224Z,33.92
2022-12-10T15:48:17.834Z,31.30
2022-12-10T15:50:46.351Z,34.85
2022-12-10T15:53:14.911Z,33.30
2022-12-10T15:55:41.517Z,34.50
2022-12-10T15:58:12.709Z,30.90
2022-12-10T16:00:44.492Z,28.13
2022-12-10T16:03:13.694Z,32.63
2022-12-10T16:05:40.450Z,31.83
2022-12-10T16:08:16.959Z,28.35
2022-12-10T16:10:44.867Z,30.85
2022-12-10T16:13:19.362Z,36.95
2022-12-10T16:16:07.983Z,37.13
2022-12-10T16:18:38.391Z,38.53
2022-12-10T16:21:06.163Z,34.20
2022-12-10T16:23:33.648Z,34.13
2022-12-10T16:26:00.784Z,29.58
2022-12-10T16:28:28.137Z,32.20
2022-12-10T16:30:59.888Z,31.92
2022-12-10T16:33:27.951Z,31.65
2022-12-10T16:35:57.012Z,31.05
2022-12-10T16:38:24.655Z,32.90
2022-12-10T16:40:51.137Z,33.35
2022-12-10T16:43:23.242Z,34.20
2022-12-10T16:45:50.908Z,32.67
2022-12-10T16:48:17.434Z,32.30
2022-12-10T16:50:45.016Z,31.58
2022-12-10T16:53:29.886Z,32.72
2022-12-10T16:55:57.545Z,29.58
2022-12-10T16:58:25.209Z,30.00
2022-12-10T17:00:53.926Z,28.08
2022-12-10T17:03:25.022Z,30.98
2022-12-10T17:08:19.156Z,30.25
2022-12-10T17:11:05.297Z,29.25
2022-12-10T17:13:33.075Z,28.27
2022-12-10T17:15:59.765Z,30.13
2022-12-10T17:18:26.160Z,31.77
2022-12-10T17:20:52.977Z,31.00
2022-12-10T17:23:19.852Z,33.55
2022-12-10T17:25:46.707Z,32.83
2022-12-10T17:28:21.212Z,30.85
2022-12-10T17:30:49.799Z,29.60
2022-12-10T17:33:19.659Z,41.70
2022-12-10T17:35:48.282Z,34.63
2022-12-10T17:38:20.697Z,33.78
2022-12-10T17:40:47.132Z,28.58
2022-12-10T17:43:13.929Z,42.40
2022-12-10T17:45:41.900Z,40.65
2022-12-10T17:48:13.092Z,34.90
2022-12-10T17:50:39.648Z,36.67
2022-12-10T17:53:13.659Z,32.17
2022-12-10T17:55:45.156Z,34.40
2022-12-10T17:58:14.655Z,29.80
2022-12-10T18:00:41.327Z,28.05
2022-12-10T18:03:07.865Z,39.92
2022-12-10T18:05:34.420Z,33.03
2022-12-10T18:08:00.939Z,33.75
2022-12-10T18:10:30.524Z,41.47
2022-12-10T18:12:57.443Z,35.30
2022-12-10T18:15:26.088Z,38.75
2022-12-10T18:17:53.428Z,39.92
2022-12-10T18:20:24.795Z,58.03
2022-12-10T18:22:52.751Z,39.95
2022-12-10T18:25:22.597Z,40.17
2022-12-10T18:27:50.149Z,40.88
2022-12-10T18:30:18.859Z,44.60
2022-12-10T18:32:45.450Z,56.35
2022-12-10T18:35:12.306Z,43.20
2022-12-10T18:37:39.682Z,47.78
2022-12-10T18:40:09.071Z,46.10
2022-12-10T18:42:35.556Z,46.05
2022-12-10T18:45:01.955Z,50.17
2022-12-10T18:47:28.385Z,49.13
2022-12-10T18:49:54.789Z,44.65
2022-12-10T18:52:21.193Z,49.33
2022-12-10T18:54:48.013Z,57.95
2022-12-10T19:00:01.612Z,58.00
2022-12-10T19:02:28.143Z,53.72
2022-12-10T19:04:54.571Z,52.05
2022-12-10T19:07:21.011Z,50.85
2022-12-10T19:09:49.334Z,50.50
2022-12-10T19:12:15.727Z,106.78
2022-12-10T19:14:42.130Z,73.63
2022-12-10T19:17:11.031Z,46.70
2022-12-10T19:19:37.473Z,67.75
2022-12-10T19:22:04.101Z,84.93
2022-12-10T19:24:30.569Z,84.68
2022-12-10T19:26:57.039Z,151.00
2022-12-10T19:29:23.847Z,76.90
2022-12-10T19:31:50.973Z,74.28
2022-12-10T19:34:19.727Z,75.82
2022-12-10T19:36:47.093Z,86.22
2022-12-10T19:39:23.217Z,74.53
2022-12-10T19:41:51.228Z,65.35
2022-12-10T19:44:17.865Z,64.72
2022-12-10T19:46:44.672Z,72.00
2022-12-10T19:49:12.371Z,50.40
2022-12-10T19:51:38.769Z,41.95
2022-12-10T19:54:05.300Z,69.47
2022-12-10T19:56:33.522Z,37.03
2022-12-10T19:59:03.789Z,42.75
2022-12-10T20:01:30.685Z,45.60
2022-12-10T20:03:57.832Z,44.83
2022-12-10T20:06:33.256Z,51.20
2022-12-10T20:09:02.366Z,39.85
2022-12-10T20:11:29.455Z,40.17
2022-12-10T20:13:56.360Z,44.53
2022-12-10T20:16:25.674Z,39.78
2022-12-10T20:18:52.997Z,42.35
2022-12-10T20:21:19.926Z,41.28
2022-12-10T20:23:46.619Z,54.63
2022-12-10T20:26:32.817Z,56.58
2022-12-10T20:29:00.180Z,65.20
2022-12-10T20:31:27.549Z,34.78
2022-12-10T20:33:53.990Z,53.28
2022-12-10T20:36:23.949Z,40.28
2022-12-10T20:38:50.919Z,46.35
2022-12-10T20:41:19.171Z,50.35
2022-12-10T20:43:46.315Z,39.67
2022-12-10T20:46:20.292Z,49.42
2022-12-10T20:48:47.407Z,61.03
2022-12-10T20:51:14.049Z,34.45
2022-12-10T20:53:40.858Z,31.20
2022-12-10T20:56:12.840Z,35.47
2022-12-10T20:58:39.319Z,36.70
2022-12-10T21:01:06.060Z,39.13
2022-12-10T21:03:32.776Z,40.55
2022-12-10T21:06:00.549Z,43.95
2022-12-10T21:08:28.988Z,41.03
2022-12-10T21:10:56.530Z,42.20
2022-12-10T21:13:26.428Z,37.45
2022-12-10T21:15:54.578Z,35.60
2022-12-10T21:18:21.629Z,38.78
2022-12-10T21:20:48.805Z,31.83
2022-12-10T21:23:18.588Z,43.22
2022-12-10T21:25:45.197Z,58.08
2022-12-10T21:28:11.813Z,38.70
2022-12-10T21:30:39.173Z,42.45
2022-12-10T21:33:06.000Z,36.80
2022-12-10T21:35:32.506Z,40.83
2022-12-10T21:37:59.820Z,43.15
2022-12-10T21:40:26.295Z,46.90
2022-12-10T21:43:12.108Z,41.47
2022-12-10T21:45:38.578Z,38.10
2022-12-10T21:48:05.247Z,39.88
2022-12-10T21:50:32.178Z,44.47
2022-12-10T21:52:58.713Z,47.30
2022-12-10T21:55:30.249Z,44.50
2022-12-10T21:57:58.844Z,43.28
2022-12-10T22:00:25.599Z,50.78
2022-12-10T22:02:52.055Z,52.42
2022-12-10T22:05:18.537Z,54.80
2022-12-10T22:07:45.056Z,46.10
2022-12-10T22:10:12.895Z,35.67
2022-12-10T22:12:39.845Z,44.08
2022-12-10T22:15:07.570Z,38.00
2022-12-10T22:17:34.468Z,47.13
2022-12-10T22:20:01.268Z,42.85
2022-12-10T22:22:27.722Z,44.53
2022-12-10T22:24:54.217Z,41.42
2022-12-10T22:27:20.674Z,53.95
2022-12-10T22:29:47.377Z,59.92
2022-12-10T22:32:13.943Z,41.95
2022-12-10T22:34:45.128Z,41.83
2022-12-10T22:39:38.649Z,41.03
2022-12-10T22:42:05.763Z,47.40
2022-12-10T22:44:32.176Z,51.38
2022-12-10T22:46:58.676Z,46.92
2022-12-10T22:49:25.141Z,38.58
2022-12-10T22:51:51.589Z,47.15
2022-12-10T22:54:18.221Z,46.67
2022-12-10T22:56:44.683Z,42.00
2022-12-10T22:59:12.034Z,40.20
2022-12-10T23:01:38.704Z,51.22
2022-12-10T23:04:05.169Z,40.92
2022-12-10T23:06:31.952Z,48.78
2022-12-10T23:08:58.579Z,50.80
2022-12-10T23:11:25.030Z,48.05
2022-12-10T23:13:51.836Z,44.45
2022-12-10T23:16:19.031Z,44.05
2022-12-10T23:18:49.865Z,39.72
2022-12-10T23:21:25.953Z,48.75
2022-12-10T23:23:53.475Z,38.17
2022-12-10T23:26:20.809Z,36.60
2022-12-10T23:28:48.389Z,39.35
2022-12-10T23:31:16.332Z,37.85
2022-12-10T23:33:43.962Z,36.40
2022-12-10T23:36:10.830Z,41.03
2022-12-10T23:38:37.840Z,42.05
2022-12-10T23:41:09.009Z,36.92
2022-12-10T23:43:36.191Z,36.05
2022-12-10T23:46:02.945Z,38.35
2022-12-10T23:48:30.616Z,37.67
2022-12-10T23:50:58.245Z,34.40
2022-12-10T23:53:25.229Z,36.63
2022-12-10T23:55:51.705Z,34.67
2022-12-10T23:58:18.373Z,37.85
